Time;durP1;ratioP1;P1;durP2;ratioP2;P2;SDS_P1;SDS_P2;PMS_P1;PMS_P2;Temp;Humidity;BMP_temperature;BMP_pressure;BME280_temperature;BME280_humidity;BME280_pressure;Samples;Min_cycle;Max_cycle;Signal;HPM_P1;HPM_P2
2021/09/02 00:00:33;;;;;;;9.60;5.13;;;;;;;16.48;49.93;95499.88;5050815;28;20455;-69
2021/09/02 00:03:00;;;;;;;7.20;5.47;;;;;;;16.30;50.19;95495.22;5037241;28;20502;-71
2021/09/02 00:05:27;;;;;;;9.77;5.57;;;;;;;16.40;50.06;95498.59;5050904;28;20865;-72
2021/09/02 00:07:54;;;;;;;7.10;5.27;;;;;;;16.36;50.01;95500.22;5051100;28;20544;-70
2021/09/02 00:10:22;;;;;;;7.17;5.50;;;;;;;16.37;50.27;95515.00;5051007;28;20439;-70
2021/09/02 00:12:49;;;;;;;8.97;4.97;;;;;;;16.36;50.27;95502.88;5050799;28;20439;-71
2021/09/02 00:15:16;;;;;;;12.00;5.73;;;;;;;16.29;50.14;95502.41;5051010;28;20522;-71
2021/09/02 00:17:43;;;;;;;8.73;4.97;;;;;;;16.50;50.10;95509.13;5037388;28;20459;-69
2021/09/02 00:20:11;;;;;;;8.40;5.63;;;;;;;16.49;50.50;95507.56;5035400;28;20438;-71
2021/09/02 00:22:38;;;;;;;7.97;5.27;;;;;;;16.59;49.93;95511.97;5050392;28;20567;-71
2021/09/02 00:25:05;;;;;;;7.73;5.70;;;;;;;16.51;50.38;95516.00;5033628;28;20440;-69
2021/09/02 00:27:33;;;;;;;8.30;5.13;;;;;;;16.38;50.03;95500.75;5030269;28;20447;-69
2021/09/02 00:30:00;;;;;;;8.33;5.63;;;;;;;16.58;50.15;95505.09;5044964;28;21015;-70
2021/09/02 00:32:27;;;;;;;7.83;5.37;;;;;;;16.31;50.75;95494.97;5038425;28;20470;-70
2021/09/02 00:34:55;;;;;;;6.70;5.73;;;;;;;16.27;50.71;95507.16;5036506;28;20906;-71
2021/09/02 00:37:22;;;;;;;9.63;5.70;;;;;;;16.04;51.61;95511.28;5050129;28;20439;-70
2021/09/02 00:39:48;;;;;;;9.50;5.70;;;;;;;16.14;51.39;95510.44;5050755;28;20438;-70
2021/09/02 00:42:15;;;;;;;10.57;5.50;;;;;;;16.06;51.42;95501.22;5031169;28;20492;-71
2021/09/02 00:44:45;;;;;;;11.40;5.50;;;;;;;16.18;52.19;95500.88;5042175;28;20439;-70
2021/09/02 00:47:17;;;;;;;8.40;5.40;;;;;;;16.22;51.94;95497.41;5035458;28;20466;-70
2021/09/02 00:49:44;;;;;;;7.47;5.57;;;;;;;16.15;51.71;95485.56;5041518;28;20436;-71
2021/09/02 00:52:20;;;;;;;8.83;5.20;;;;;;;16.33;52.23;95500.75;5043672;28;20451;-71
2021/09/02 00:54:52;;;;;;;8.07;4.97;;;;;;;16.11;52.06;95500.41;5031096;28;20527;-70
2021/09/02 00:57:22;;;;;;;9.90;4.90;;;;;;;15.67;53.42;95510.19;5043812;28;21116;-71
2021/09/02 01:00:01;;;;;;;10.17;5.37;;;;;;;16.11;52.44;95495.13;5030910;28;20443;-70
2021/09/02 01:02:29;;;;;;;7.17;5.00;;;;;;;16.45;51.45;95501.22;5045053;28;20862;-71
2021/09/02 01:04:57;;;;;;;7.20;5.23;;;;;;;16.25;51.80;95498.72;5050200;28;20439;-71
2021/09/02 01:07:29;;;;;;;11.63;5.30;;;;;;;15.86;52.83;95497.91;5035707;28;20431;-70
2021/09/02 01:09:58;;;;;;;6.97;5.00;;;;;;;15.65;53.41;95499.09;5043781;28;21061;-70
2021/09/02 01:12:37;;;;;;;7.93;4.73;;;;;;;15.97;53.24;95494.13;5045043;28;21051;-71
2021/09/02 01:15:06;;;;;;;7.77;4.50;;;;;;;16.16;52.37;95487.94;5044489;28;20444;-70
2021/09/02 01:17:33;;;;;;;7.33;4.93;;;;;;;16.09;52.86;95486.69;5033156;28;20996;-71
2021/09/02 01:20:01;;;;;;;7.43;4.63;;;;;;;15.99;52.85;95486.72;5045869;28;20536;-71
2021/09/02 01:22:29;;;;;;;7.63;4.73;;;;;;;15.94;52.88;95500.78;5041123;28;20478;-70
2021/09/02 01:25:01;;;;;;;7.23;5.03;;;;;;;16.02;53.06;95476.38;5048020;28;20447;-71
2021/09/02 01:27:29;;;;;;;7.60;5.10;;;;;;;15.96;53.03;95485.44;5039060;28;20431;-71
2021/09/02 01:29:57;;;;;;;7.33;4.77;;;;;;;16.31;51.99;95484.41;5049618;28;20995;-71
2021/09/02 01:32:26;;;;;;;6.67;4.33;;;;;;;16.20;52.25;95461.75;5044655;28;20576;-72
2021/09/02 01:34:57;;;;;;;6.80;4.30;;;;;;;16.05;53.08;95493.56;5047957;28;20438;-70
2021/09/02 01:37:37;;;;;;;6.00;4.70;;;;;;;15.95;52.74;95485.69;5046699;28;20962;-70
2021/09/02 01:40:05;;;;;;;8.90;4.90;;;;;;;15.67;54.18;95491.69;5034087;28;20542;-71
2021/09/02 01:42:32;;;;;;;5.70;4.70;;;;;;;15.85;53.56;95496.34;5040827;28;20497;-70
2021/09/02 01:44:59;;;;;;;10.20;5.00;;;;;;;16.03;52.92;95490.41;5053892;28;20442;-70
2021/09/02 01:47:27;;;;;;;10.60;5.67;;;;;;;16.03;52.73;95477.19;5033583;28;20494;-73
2021/09/02 01:50:07;;;;;;;6.17;4.80;;;;;;;16.00;53.03;95480.38;5045859;28;20548;-72
2021/09/02 01:52:35;;;;;;;6.63;5.10;;;;;;;15.98;53.25;95480.63;5049223;28;20513;-70
2021/09/02 01:55:03;;;;;;;7.73;4.60;;;;;;;15.96;53.57;95476.72;5044318;28;20445;-70
2021/09/02 01:57:31;;;;;;;6.90;4.50;;;;;;;16.09;52.67;95481.38;5052762;28;20438;-70
2021/09/02 01:59:58;;;;;;;7.63;4.90;;;;;;;16.07;52.64;95486.16;5044540;28;20444;-70
2021/09/02 02:02:25;;;;;;;9.20;5.00;;;;;;;16.04;52.65;95473.47;5046928;28;20471;-71
2021/09/02 02:04:52;;;;;;;6.33;4.83;;;;;;;16.19;52.96;95481.28;5041517;28;20526;-70
2021/09/02 02:07:19;;;;;;;12.83;5.73;;;;;;;16.15;52.75;95493.47;5053248;28;20442;-73
2021/09/02 02:09:46;;;;;;;7.70;5.30;;;;;;;15.95;53.15;95480.41;5053214;28;20439;-71
2021/09/02 02:12:13;;;;;;;6.17;4.77;;;;;;;16.01;52.83;95481.97;5052530;28;20497;-71
2021/09/02 02:14:40;;;;;;;7.70;4.93;;;;;;;15.90;52.92;95493.66;5053132;28;20438;-72
2021/09/02 02:17:06;;;;;;;9.43;5.57;;;;;;;15.99;52.81;95481.44;5045095;28;20452;-72
2021/09/02 02:19:33;;;;;;;11.20;5.13;;;;;;;16.00;53.56;95488.31;5033284;28;20439;-71
2021/09/02 02:22:01;;;;;;;6.13;4.93;;;;;;;15.78;53.51;95485.28;5038869;28;20577;-72
2021/09/02 02:24:27;;;;;;;8.83;5.13;;;;;;;15.97;52.88;95478.28;5040767;28;20950;-70
2021/09/02 02:26:55;;;;;;;8.03;4.97;;;;;;;16.05;53.61;95488.28;5046534;28;20819;-70
2021/09/02 02:29:22;;;;;;;7.63;5.30;;;;;;;15.89;54.15;95486.81;5033620;28;20439;-70
2021/09/02 02:31:49;;;;;;;9.13;5.63;;;;;;;15.75;53.42;95470.75;5035124;28;20525;-71
2021/09/02 02:34:17;;;;;;;9.60;5.67;;;;;;;15.92;53.50;95492.34;5043742;28;20440;-72
2021/09/02 02:36:44;;;;;;;7.47;5.60;;;;;;;15.82;53.33;95481.03;5048137;28;20528;-70
2021/09/02 02:39:10;;;;;;;6.97;5.40;;;;;;;15.68;54.49;95490.59;5052949;28;20437;-70
2021/09/02 02:41:37;;;;;;;8.23;5.57;;;;;;;15.84;54.29;95492.09;5038625;28;20834;-70
2021/09/02 02:44:04;;;;;;;11.70;5.57;;;;;;;15.60;54.55;95493.84;5046334;28;20539;-70
2021/09/02 02:46:32;;;;;;;8.90;5.73;;;;;;;15.45;55.41;95501.81;5032409;28;20483;-71
2021/09/02 02:48:59;;;;;;;6.40;5.33;;;;;;;15.49;54.57;95471.16;5049376;28;20467;-70
2021/09/02 02:51:26;;;;;;;8.53;5.33;;;;;;;15.60;54.77;95493.84;5052155;28;20518;-71
2021/09/02 02:53:52;;;;;;;8.17;6.10;;;;;;;15.54;55.10;95501.00;5038474;28;20444;-72
2021/09/02 02:56:19;;;;;;;10.37;6.07;;;;;;;15.49;55.19;95492.31;5045120;28;20443;-71
2021/09/02 02:58:48;;;;;;;8.97;5.63;;;;;;;15.51;54.73;95496.22;5032447;28;20463;-73
2021/09/02 03:01:15;;;;;;;10.80;5.93;;;;;;;15.45;54.70;95480.69;5051675;28;20489;-69
2021/09/02 03:03:43;;;;;;;11.67;6.10;;;;;;;15.42;55.77;95497.09;5052765;28;20482;-71
2021/09/02 03:06:12;;;;;;;7.13;5.70;;;;;;;15.69;55.41;95506.19;5047737;28;20509;-69
2021/09/02 03:08:40;;;;;;;8.90;5.80;;;;;;;15.74;55.32;95503.53;5042798;28;20435;-71
2021/09/02 03:11:07;;;;;;;7.97;6.07;;;;;;;15.72;55.37;95507.50;5048710;28;20513;-69
2021/09/02 03:13:34;;;;;;;12.50;6.47;;;;;;;16.01;54.35;95495.19;5041699;28;20659;-70
2021/09/02 03:16:01;;;;;;;9.50;6.50;;;;;;;16.30;53.57;95501.31;5051564;28;20481;-71
2021/09/02 03:18:28;;;;;;;11.47;6.57;;;;;;;16.42;54.06;95506.25;5033363;28;20429;-70
2021/09/02 03:20:55;;;;;;;8.57;6.73;;;;;;;16.32;53.73;95501.03;5032827;28;20448;-72
2021/09/02 03:23:21;;;;;;;8.67;6.33;;;;;;;16.06;54.07;95498.56;5047136;28;20483;-69
2021/09/02 03:25:48;;;;;;;7.63;5.97;;;;;;;16.15;53.68;95498.78;5042077;28;20534;-72
2021/09/02 03:28:16;;;;;;;7.60;5.87;;;;;;;16.24;53.94;95505.06;5052049;28;20445;-72
2021/09/02 03:30:42;;;;;;;9.90;6.70;;;;;;;16.01;53.96;95493.31;5051905;28;20449;-71
2021/09/02 03:33:09;;;;;;;12.23;6.43;;;;;;;15.90;54.76;95502.38;5052486;28;20516;-72
2021/09/02 03:35:36;;;;;;;10.50;6.20;;;;;;;15.80;54.46;95477.88;5031380;28;21291;-69
2021/09/02 03:38:05;;;;;;;7.83;6.27;;;;;;;15.60;55.51;95499.13;5032279;28;20440;-71
2021/09/02 03:40:33;;;;;;;8.23;6.40;;;;;;;16.02;54.67;95491.50;5035880;28;20450;-70
2021/09/02 03:43:00;;;;;;;10.37;6.43;;;;;;;16.16;54.13;95497.72;5051638;28;20838;-70
2021/09/02 03:45:26;;;;;;;11.60;6.20;;;;;;;16.12;54.44;95501.97;5051034;28;20446;-70
2021/09/02 03:47:54;;;;;;;9.97;6.47;;;;;;;16.21;54.17;95500.31;5051945;28;20830;-69
2021/09/02 03:50:20;;;;;;;10.47;6.50;;;;;;;15.91;54.64;95505.81;5037824;28;20444;-69
2021/09/02 03:52:47;;;;;;;8.77;5.73;;;;;;;15.83;54.78;95501.91;5038180;28;20443;-69
2021/09/02 03:55:14;;;;;;;10.20;6.07;;;;;;;16.04;54.58;95505.19;5050728;28;20443;-70
2021/09/02 03:57:41;;;;;;;12.37;6.67;;;;;;;15.80;55.43;95504.31;5036753;28;20439;-70
2021/09/02 04:00:11;;;;;;;9.20;6.10;;;;;;;15.90;55.22;95515.59;5041313;28;20431;-70
2021/09/02 04:02:39;;;;;;;8.93;6.90;;;;;;;16.01;55.08;95511.03;5047897;28;20513;-71
2021/09/02 04:05:09;;;;;;;11.50;6.47;;;;;;;15.94;54.83;95514.00;5051534;28;20435;-70
2021/09/02 04:07:36;;;;;;;7.83;6.57;;;;;;;15.77;56.06;95518.03;5048530;28;20447;-71
2021/09/02 04:10:05;;;;;;;8.53;6.40;;;;;;;15.83;55.34;95511.66;5039451;28;20971;-70
2021/09/02 04:12:32;;;;;;;10.43;6.60;;;;;;;15.67;55.70;95516.25;5049951;28;20451;-70
2021/09/02 04:14:59;;;;;;;8.60;7.10;;;;;;;15.90;56.08;95517.44;5038205;28;20442;-71
2021/09/02 04:17:27;;;;;;;9.73;6.63;;;;;;;15.84;55.41;95521.16;5040215;28;20447;-69
2021/09/02 04:19:54;;;;;;;8.90;6.90;;;;;;;16.20;54.70;95520.69;5047948;28;20894;-71
2021/09/02 04:22:21;;;;;;;12.73;7.27;;;;;;;16.28;54.84;95524.59;5049549;28;20938;-71
2021/09/02 04:24:48;;;;;;;12.37;7.40;;;;;;;16.16;54.38;95529.47;5050592;28;21026;-69
2021/09/02 04:27:17;;;;;;;9.57;6.57;;;;;;;16.05;55.12;95522.66;5042978;28;20451;-70
2021/09/02 04:29:44;;;;;;;11.70;7.37;;;;;;;16.06;55.45;95524.22;5031052;28;20463;-70
2021/09/02 04:32:11;;;;;;;7.13;6.30;;;;;;;16.06;54.85;95534.78;5030532;28;20440;-70
2021/09/02 04:34:39;;;;;;;12.13;7.33;;;;;;;16.05;54.55;95535.88;5043044;28;20443;-70
2021/09/02 04:37:06;;;;;;;11.73;6.53;;;;;;;16.00;55.70;95541.19;5049886;28;20445;-71
2021/09/02 04:39:34;;;;;;;10.40;7.20;;;;;;;16.09;54.83;95542.97;5050303;28;20435;-70
2021/09/02 04:42:01;;;;;;;9.57;6.87;;;;;;;16.25;54.55;95533.09;5049644;28;20471;-71
2021/09/02 04:44:28;;;;;;;9.30;6.90;;;;;;;16.05;55.07;95538.50;5051063;28;20504;-72
2021/09/02 04:46:55;;;;;;;12.17;6.70;;;;;;;15.94;55.05;95542.28;5050117;28;20523;-72
2021/09/02 04:49:22;;;;;;;10.57;6.73;;;;;;;16.15;54.94;95551.66;5045848;28;20458;-71
2021/09/02 04:51:49;;;;;;;10.07;6.97;;;;;;;16.11;54.75;95555.94;5044522;28;20446;-73
2021/09/02 04:54:16;;;;;;;10.10;7.03;;;;;;;16.17;54.97;95542.41;5033277;28;20440;-70
2021/09/02 04:56:43;;;;;;;11.70;7.60;;;;;;;16.23;55.01;95553.72;5040689;28;20542;-71
2021/09/02 04:59:11;;;;;;;7.90;6.50;;;;;;;16.01;56.20;95558.63;5050530;28;20971;-72
2021/09/02 05:01:38;;;;;;;9.20;6.73;;;;;;;15.87;55.79;95558.44;5051181;28;20438;-69
2021/09/02 05:04:06;;;;;;;9.77;6.60;;;;;;;15.86;55.88;95558.69;5052217;28;20995;-69
2021/09/02 05:06:33;;;;;;;10.47;6.50;;;;;;;15.79;55.70;95552.91;5039441;28;20478;-71
2021/09/02 05:09:01;;;;;;;9.87;6.67;;;;;;;15.67;56.06;95568.31;5051938;28;20444;-72
2021/09/02 05:11:28;;;;;;;10.83;6.27;;;;;;;15.85;55.67;95565.03;5044361;28;20458;-70
2021/09/02 05:13:54;;;;;;;11.27;6.00;;;;;;;15.69;56.16;95561.66;5042681;28;20447;-74
2021/09/02 05:16:22;;;;;;;9.40;6.27;;;;;;;16.11;55.00;95559.34;5048436;28;20508;-70
2021/09/02 05:18:49;;;;;;;11.67;6.80;;;;;;;15.89;55.53;95576.66;5037991;28;20999;-71
2021/09/02 05:21:16;;;;;;;10.73;6.57;;;;;;;15.85;55.99;95565.03;5049288;28;20439;-72
2021/09/02 05:23:43;;;;;;;7.87;6.20;;;;;;;16.08;54.98;95574.97;5037152;28;20474;-73
2021/09/02 05:26:10;;;;;;;10.00;6.97;;;;;;;16.06;55.06;95577.88;5050672;28;20498;-71
2021/09/02 05:28:37;;;;;;;10.63;6.50;;;;;;;15.95;56.05;95564.97;5032248;28;21010;-71
2021/09/02 05:31:04;;;;;;;7.97;6.23;;;;;;;16.03;54.86;95567.06;5030119;28;20451;-70
2021/09/02 05:33:31;;;;;;;11.03;6.20;;;;;;;16.28;54.73;95574.84;5045872;28;20446;-72
2021/09/02 05:35:58;;;;;;;9.83;6.00;;;;;;;16.18;55.03;95574.94;5050412;28;20504;-70
2021/09/02 05:38:25;;;;;;;9.77;6.70;;;;;;;16.33;54.34;95577.44;5050731;28;20508;-71
2021/09/02 05:40:52;;;;;;;7.73;5.93;;;;;;;15.97;55.30;95573.44;5050026;28;20438;-73
2021/09/02 05:43:20;;;;;;;8.90;6.23;;;;;;;16.19;54.63;95572.00;5050348;28;20616;-70
2021/09/02 05:45:48;;;;;;;13.43;6.57;;;;;;;16.34;54.61;95573.75;5049563;28;20443;-70
2021/09/02 05:48:15;;;;;;;13.83;7.07;;;;;;;16.31;54.79;95579.59;5049877;28;20446;-72
2021/09/02 05:50:42;;;;;;;13.70;6.23;;;;;;;16.10;54.96;95568.34;5035325;28;20513;-69
2021/09/02 05:53:09;;;;;;;9.20;6.30;;;;;;;16.45;54.45;95574.47;5049849;28;20449;-69
2021/09/02 05:55:37;;;;;;;15.57;6.90;;;;;;;16.45;54.43;95574.47;5033758;28;20443;-71
2021/09/02 05:58:05;;;;;;;9.43;6.50;;;;;;;16.63;53.52;95576.50;5042199;28;20444;-72
2021/09/02 06:00:33;;;;;;;14.17;7.03;;;;;;;16.77;53.77;95572.94;5038466;28;20917;-70
2021/09/02 06:03:00;;;;;;;9.47;6.57;;;;;;;16.90;53.16;95567.00;5035997;28;20997;-71
2021/09/02 06:05:27;;;;;;;11.30;6.50;;;;;;;16.58;53.69;95542.94;5049028;28;20443;-72
2021/09/02 06:07:54;;;;;;;13.67;6.37;;;;;;;16.60;53.01;95567.28;5044899;28;20439;-70
2021/09/02 06:10:22;;;;;;;12.77;7.40;;;;;;;17.09;53.43;95564.47;5029250;28;20985;-71
2021/09/02 06:12:49;;;;;;;9.70;5.70;;;;;;;17.22;52.30;95569.09;5046446;28;20439;-71
2021/09/02 06:15:16;;;;;;;8.80;5.97;;;;;;;17.04;51.91;95570.56;5049203;28;20440;-71
2021/09/02 06:17:43;;;;;;;9.60;6.00;;;;;;;16.93;52.18;95565.66;5038573;28;20946;-72
2021/09/02 06:20:11;;;;;;;9.53;5.43;;;;;;;17.23;51.72;95558.22;5052212;28;20450;-71
2021/09/02 06:22:38;;;;;;;7.73;5.63;;;;;;;17.43;51.55;95551.13;5052657;28;20446;-72
2021/09/02 06:25:07;;;;;;;10.10;5.00;;;;;;;17.28;51.34;95569.84;5049245;28;20941;-71
2021/09/02 06:27:35;;;;;;;8.83;5.17;;;;;;;17.53;50.84;95564.31;5042775;28;20442;-70
2021/09/02 06:30:04;;;;;;;7.43;5.30;;;;;;;17.49;51.58;95560.63;5036655;28;20432;-70
2021/09/02 06:32:31;;;;;;;8.07;5.00;;;;;;;17.34;50.88;95552.81;5032392;28;20448;-71
2021/09/02 06:34:58;;;;;;;11.87;5.40;;;;;;;16.95;50.55;95550.31;5047591;28;20500;-70
2021/09/02 06:37:25;;;;;;;6.23;5.03;;;;;;;17.36;50.99;95577.16;5052488;28;20979;-74
2021/09/02 06:39:52;;;;;;;9.77;4.70;;;;;;;17.19;50.14;95575.75;5053194;28;20442;-73
2021/09/02 06:42:19;;;;;;;7.93;5.03;;;;;;;16.90;50.60;95555.63;5046622;28;20476;-73
2021/09/02 06:44:46;;;;;;;6.87;5.13;;;;;;;16.82;51.49;95564.19;5044616;28;20505;-71
2021/09/02 06:47:13;;;;;;;9.43;4.93;;;;;;;16.98;51.58;95569.06;5052233;28;20866;-69
2021/09/02 06:49:40;;;;;;;6.57;4.90;;;;;;;17.51;50.39;95566.44;5044394;28;20440;-69
2021/09/02 06:52:07;;;;;;;8.30;4.63;;;;;;;17.45;50.55;95567.53;5047250;28;20493;-68
2021/09/02 06:54:34;;;;;;;6.97;4.50;;;;;;;17.28;49.92;95530.13;5045940;28;20958;-71
2021/09/02 06:57:01;;;;;;;8.53;4.77;;;;;;;17.55;50.15;95570.09;5045519;28;20443;-71
2021/09/02 06:59:28;;;;;;;6.23;4.93;;;;;;;17.47;49.64;95574.16;5038877;28;20519;-70
2021/09/02 07:01:55;;;;;;;7.07;5.00;;;;;;;17.72;49.31;95573.06;5052102;28;20480;-71
2021/09/02 07:04:23;;;;;;;6.40;4.63;;;;;;;17.77;49.50;95570.38;5034966;28;20578;-75
2021/09/02 07:06:49;;;;;;;7.83;4.87;;;;;;;17.83;49.48;95574.53;5041688;28;20456;-70
2021/09/02 07:09:16;;;;;;;7.20;4.67;;;;;;;18.22;49.62;95567.13;5052072;28;21024;-73
2021/09/02 07:11:45;;;;;;;6.43;4.10;;;;;;;18.02;48.57;95557.59;5044449;28;20459;-72
2021/09/02 07:14:13;;;;;;;10.23;4.57;;;;;;;18.40;49.08;95558.38;5045814;28;20450;-71
2021/09/02 07:16:40;;;;;;;9.40;4.40;;;;;;;18.32;47.68;95561.69;5034610;28;20790;-70
2021/09/02 07:19:08;;;;;;;9.10;4.60;;;;;;;17.90;47.93;95521.97;5032216;28;20435;-69
2021/09/02 07:21:36;;;;;;;11.30;5.17;;;;;;;18.31;47.77;95544.19;5048311;28;20435;-73
2021/09/02 07:24:03;;;;;;;7.90;4.77;;;;;;;18.51;47.79;95575.78;5042948;28;20913;-70
2021/09/02 07:26:30;;;;;;;5.70;4.80;;;;;;;18.87;47.37;95582.09;5046191;28;20443;-76
2021/09/02 07:28:57;;;;;;;5.30;4.43;;;;;;;18.62;47.69;95576.41;5051276;28;20474;-72
2021/09/02 07:31:24;;;;;;;7.83;4.63;;;;;;;18.52;47.37;95576.56;5052148;28;20200;-73
2021/09/02 07:33:51;;;;;;;6.37;4.13;;;;;;;18.68;47.17;95578.72;5038474;28;20901;-72
2021/09/02 07:36:18;;;;;;;12.83;4.57;;;;;;;18.71;47.17;95572.00;5051579;28;20188;-70
2021/09/02 07:39:05;;;;;;;7.13;4.17;;;;;;;18.79;47.17;95574.81;5032555;28;20217;-70
2021/09/02 07:41:33;;;;;;;8.83;4.70;;;;;;;18.41;47.97;95570.59;5044774;28;20247;-72
2021/09/02 07:44:01;;;;;;;7.23;4.83;;;;;;;18.69;47.24;95572.31;5051628;28;20479;-70
2021/09/02 07:46:27;;;;;;;8.90;4.33;;;;;;;18.93;47.12;95561.56;5039723;28;20489;-71
2021/09/02 07:48:56;;;;;;;7.67;4.40;;;;;;;18.82;46.37;95574.22;5047424;28;20824;-68
2021/09/02 07:51:22;;;;;;;8.57;4.30;;;;;;;18.89;46.30;95577.28;5040019;28;20439;-69
2021/09/02 07:53:51;;;;;;;7.83;4.13;;;;;;;18.87;46.61;95584.75;5050990;28;20545;-70
2021/09/02 07:56:18;;;;;;;10.23;4.47;;;;;;;19.30;47.58;95571.28;5038653;28;20449;-68
2021/09/02 07:58:45;;;;;;;5.73;3.80;;;;;;;19.46;45.68;95567.28;5051722;28;20204;-68
2021/09/02 08:01:13;;;;;;;9.27;4.23;;;;;;;18.90;46.57;95568.22;5050814;28;20188;-72
2021/09/02 08:03:41;;;;;;;4.73;3.57;;;;;;;19.09;45.90;95568.19;5039830;28;20614;-72
2021/09/02 08:06:08;;;;;;;7.23;4.03;;;;;;;19.23;45.81;95564.47;5049049;28;20504;-73
2021/09/02 08:08:35;;;;;;;4.50;3.57;;;;;;;19.59;44.89;95577.94;5051543;28;20631;-72
2021/09/02 08:11:03;;;;;;;5.80;3.70;;;;;;;19.19;44.88;95550.22;5036349;28;20288;-74
2021/09/02 08:13:30;;;;;;;5.77;3.80;;;;;;;19.16;45.86;95561.41;5051076;28;20266;-73
2021/09/02 08:15:56;;;;;;;8.83;4.00;;;;;;;19.67;45.54;95555.22;5050681;28;20202;-73
2021/09/02 08:18:24;;;;;;;10.47;3.77;;;;;;;20.23;45.14;95553.00;5036668;28;20259;-71
2021/09/02 08:20:51;;;;;;;5.80;3.80;;;;;;;20.34;43.29;95559.66;5040093;28;20220;-71
2021/09/02 08:23:18;;;;;;;5.30;3.73;;;;;;;19.57;44.62;95560.72;5045410;28;20303;-70
2021/09/02 08:25:46;;;;;;;5.40;3.67;;;;;;;19.74;44.41;95560.91;5030583;28;20754;-71
2021/09/02 08:28:15;;;;;;;6.50;4.10;;;;;;;19.56;44.58;95551.16;5046181;28;20674;-71
2021/09/02 08:30:42;;;;;;;9.03;3.60;;;;;;;19.73;44.68;95564.63;5050300;28;20192;-71
2021/09/02 08:33:09;;;;;;;8.90;4.60;;;;;;;19.87;44.13;95563.53;5037380;28;20201;-74
2021/09/02 08:35:36;;;;;;;6.07;3.93;;;;;;;20.07;44.02;95570.34;5030345;28;20193;-72
2021/09/02 08:38:07;;;;;;;7.67;3.93;;;;;;;19.86;44.34;95566.50;5043152;28;20274;-71
2021/09/02 08:40:37;;;;;;;8.33;4.13;;;;;;;20.01;44.87;95571.53;5045008;28;20197;-73
2021/09/02 08:43:04;;;;;;;8.50;4.60;;;;;;;20.13;43.86;95558.50;5042060;28;20228;-72
2021/09/02 08:45:32;;;;;;;7.37;4.57;;;;;;;20.41;42.95;95559.25;5032440;28;20209;-73
2021/09/02 08:48:00;;;;;;;9.77;4.30;;;;;;;20.48;44.39;95555.09;5041064;28;20201;-72
2021/09/02 08:50:30;;;;;;;7.37;4.20;;;;;;;20.56;43.13;95562.38;5034393;28;20300;-73
2021/09/02 08:53:00;;;;;;;7.40;4.43;;;;;;;20.27;43.24;95553.97;5050400;28;20625;-71
2021/09/02 08:55:28;;;;;;;4.13;3.70;;;;;;;20.37;42.69;95553.72;5050076;28;20204;-71
2021/09/02 08:57:56;;;;;;;3.77;3.20;;;;;;;20.70;44.61;95552.44;5030664;28;20201;-71
2021/09/02 09:00:25;;;;;;;13.77;4.53;;;;;;;21.07;42.98;95541.44;5042530;28;20204;-72
2021/09/02 09:03:02;;;;;;;5.73;3.50;;;;;;;20.36;42.91;95549.50;5050341;28;20201;-72
2021/09/02 09:05:34;;;;;;;5.13;3.67;;;;;;;19.80;43.31;95557.84;5049629;28;20702;-73
2021/09/02 09:08:07;;;;;;;5.97;3.70;;;;;;;20.08;43.16;95550.63;5050128;28;20203;-71
2021/09/02 09:10:35;;;;;;;5.33;3.60;;;;;;;20.43;42.45;95547.22;5049784;28;20200;-72
2021/09/02 09:13:05;;;;;;;5.40;3.53;;;;;;;20.62;43.00;95545.16;5045451;28;20185;-74
2021/09/02 09:15:44;;;;;;;5.57;3.60;;;;;;;20.66;42.32;95546.13;5030004;28;20254;-72
2021/09/02 09:18:20;;;;;;;6.93;3.63;;;;;;;20.41;42.33;95544.06;5035117;28;20291;-68
2021/09/02 09:21:07;;;;;;;6.07;3.87;;;;;;;20.92;42.58;95538.31;5049731;28;20286;-71
2021/09/02 09:24:04;;;;;;;7.33;3.90;;;;;;;21.20;41.84;95522.97;5049814;28;20192;-72
2021/09/02 09:26:33;;;;;;;5.50;3.27;;;;;;;20.38;42.07;95539.34;5049041;28;20291;-71
2021/09/02 09:29:15;;;;;;;4.33;3.47;;;;;;;20.06;42.97;95534.16;5049989;28;20188;-72
2021/09/02 09:31:42;;;;;;;6.53;3.50;;;;;;;19.96;42.90;95526.41;5033563;28;20272;-73
2021/09/02 09:34:10;;;;;;;5.90;3.40;;;;;;;20.27;42.03;95546.00;5038572;28;20192;-73
2021/09/02 09:36:38;;;;;;;3.90;3.00;;;;;;;20.08;42.57;95524.81;5049306;28;20228;-75
2021/09/02 09:39:08;;;;;;;5.47;3.40;;;;;;;20.72;41.81;95520.97;5036833;28;20538;-71
2021/09/02 09:41:47;;;;;;;7.60;3.30;;;;;;;21.04;40.89;95531.38;5050098;28;20232;-72
2021/09/02 09:44:23;;;;;;;5.90;2.97;;;;;;;21.34;40.42;95519.13;5049800;28;20311;-74
2021/09/02 09:47:07;;;;;;;4.13;3.07;;;;;;;21.24;39.78;95522.06;5049216;28;20195;-70
2021/09/02 09:50:09;;;;;;;3.87;3.07;;;;;;;21.21;39.28;95520.00;5041871;28;20196;-70
2021/09/02 09:52:43;;;;;;;4.47;2.97;;;;;;;21.19;39.74;95522.19;5037598;28;20219;-74
2021/09/02 09:55:18;;;;;;;5.17;3.20;;;;;;;21.45;40.10;95523.09;5053790;28;20181;-71
2021/09/02 09:57:46;;;;;;;3.83;3.13;;;;;;;21.78;39.76;95526.19;5053160;28;20202;-72
2021/09/02 10:00:16;;;;;;;7.40;3.80;;;;;;;21.49;39.76;95536.59;5042746;28;20195;-71
2021/09/02 10:02:49;;;;;;;3.63;3.13;;;;;;;21.89;39.86;95530.16;5051212;28;20197;-72
2021/09/02 10:05:21;;;;;;;5.37;3.53;;;;;;;21.95;38.89;95528.94;5042372;28;20757;-72
2021/09/02 10:07:51;;;;;;;5.63;3.80;;;;;;;21.92;38.69;95522.31;5037295;28;20268;-70
2021/09/02 10:10:18;;;;;;;5.07;3.30;;;;;;;22.21;40.48;95531.63;5056167;28;20200;-72
2021/09/02 10:12:47;;;;;;;4.27;3.30;;;;;;;21.46;39.17;95538.00;5040442;28;20674;-73
2021/09/02 10:15:22;;;;;;;3.87;3.07;;;;;;;21.73;38.67;95515.66;5044702;28;20200;-74
2021/09/02 10:17:52;;;;;;;6.63;3.13;;;;;;;21.92;38.82;95524.19;5039616;28;20192;-69
2021/09/02 10:20:24;;;;;;;6.10;3.03;;;;;;;21.84;37.59;95532.97;5039306;28;20266;-70
2021/09/02 10:22:55;;;;;;;5.47;3.03;;;;;;;21.49;38.20;95525.94;5053212;28;20200;-70
2021/09/02 10:25:32;;;;;;;5.10;2.80;;;;;;;20.87;38.69;95536.59;5052798;28;20234;-71
2021/09/02 10:28:12;;;;;;;4.57;3.00;;;;;;;20.57;38.81;95534.63;5053667;28;20204;-73
2021/09/02 10:30:48;;;;;;;14.07;3.90;;;;;;;21.69;38.44;95514.69;5045927;28;21112;-73
2021/09/02 10:33:36;;;;;;;6.87;3.17;;;;;;;21.97;37.66;95518.69;5033790;28;20204;-69
2021/09/02 10:36:15;;;;;;;4.00;3.10;;;;;;;21.48;37.91;95521.69;5043980;28;20191;-74
2021/09/02 10:38:42;;;;;;;3.23;2.87;;;;;;;21.52;37.76;95512.75;5055713;28;20220;-69
2021/09/02 10:41:09;;;;;;;3.80;3.23;;;;;;;21.41;38.27;95521.34;5055305;28;20287;-71
2021/09/02 10:43:51;;;;;;;4.40;3.00;;;;;;;21.20;38.18;95523.78;5054207;28;20196;-73
2021/09/02 10:46:49;;;;;;;4.40;2.80;;;;;;;21.54;38.89;95523.13;5054255;28;20208;-73
2021/09/02 10:49:22;;;;;;;18.47;3.43;;;;;;;21.42;37.91;95520.25;5051957;28;20283;-72
2021/09/02 10:52:25;;;;;;;5.63;2.97;;;;;;;21.76;36.90;95523.03;5041907;28;20189;-72
2021/09/02 10:54:52;;;;;;;4.47;3.00;;;;;;;21.38;37.90;95513.97;5042160;28;20208;-73
2021/09/02 10:57:20;;;;;;;4.93;2.83;;;;;;;21.53;37.20;95526.91;5052731;28;20246;-73
2021/09/02 10:59:52;;;;;;;6.13;2.73;;;;;;;21.59;37.13;95512.31;5053013;28;20207;-71
2021/09/02 11:02:22;;;;;;;4.67;2.97;;;;;;;22.00;37.06;95515.44;5052028;28;20203;-74
2021/09/02 11:05:01;;;;;;;4.80;2.90;;;;;;;21.95;37.08;95507.59;5039630;28;20663;-71
2021/09/02 11:07:40;;;;;;;4.93;3.50;;;;;;;21.89;38.10;95514.94;5051945;28;20287;-72
2021/09/02 11:10:09;;;;;;;8.00;3.70;;;;;;;21.84;37.19;95522.31;5043873;28;20200;-74
2021/09/02 11:12:36;;;;;;;5.33;3.47;;;;;;;22.41;36.82;95515.75;5047333;28;20201;-73
2021/09/02 11:15:04;;;;;;;5.17;2.73;;;;;;;22.64;34.92;95517.22;5052510;28;20620;-71
2021/09/02 11:17:32;;;;;;;4.73;2.80;;;;;;;23.15;33.96;95508.31;5037991;28;20204;-73
2021/09/02 11:20:26;;;;;;;3.43;2.47;;;;;;;22.65;34.44;95516.09;5051916;28;20200;-71
2021/09/02 11:23:08;;;;;;;3.10;2.40;;;;;;;23.09;34.77;95510.38;5052059;28;20200;-72
2021/09/02 11:25:48;;;;;;;2.77;2.57;;;;;;;23.39;35.14;95513.13;5031832;28;20219;-72
2021/09/02 11:28:23;;;;;;;4.47;2.77;;;;;;;23.25;33.61;95513.28;5048001;28;20203;-72
2021/09/02 11:30:51;;;;;;;4.70;2.87;;;;;;;23.48;34.62;95511.22;5051418;28;20215;-70
2021/09/02 11:33:19;;;;;;;2.50;2.20;;;;;;;23.56;32.55;95510.38;5036876;28;20224;-71
2021/09/02 11:35:59;;;;;;;2.30;2.10;;;;;;;23.26;32.81;95514.09;5039119;28;20196;-69
2021/09/02 11:38:26;;;;;;;7.47;2.97;;;;;;;23.43;32.87;95520.19;5036042;28;20613;-73
2021/09/02 11:40:54;;;;;;;5.07;2.90;;;;;;;23.43;32.58;95520.19;5031565;28;20185;-72